Time;durP1;ratioP1;P1;durP2;ratioP2;P2;SDS_P1;SDS_P2;PMS_P1;PMS_P2;Temp;Humidity;BMP_temperature;BMP_pressure;BME280_temperature;BME280_humidity;BME280_pressure;Samples;Min_cycle;Max_cycle;Signal;HPM_P1;HPM_P2
2023/09/26 00:00:01;;;;;;;2.90;2.70;;;11.60;99.90;;;;;;4860668;29;20206;-62
2023/09/26 00:02:30;;;;;;;3.13;2.83;;;11.60;99.90;;;;;;4873954;29;20718;-63
2023/09/26 00:04:58;;;;;;;5.80;2.97;;;11.60;99.90;;;;;;4872781;29;20194;-63
2023/09/26 00:07:25;;;;;;;3.17;2.80;;;11.50;99.90;;;;;;4873714;29;20205;-62
2023/09/26 00:09:52;;;;;;;3.30;2.70;;;11.50;99.90;;;;;;4854501;29;20216;-62
2023/09/26 00:12:19;;;;;;;3.53;2.57;;;11.60;99.90;;;;;;4875169;29;20204;-62
2023/09/26 00:14:46;;;;;;;8.00;2.63;;;11.50;99.90;;;;;;4874984;29;20242;-64
2023/09/26 00:17:15;;;;;;;4.13;2.10;;;11.50;99.90;;;;;;4882859;29;20233;-64
2023/09/26 00:19:42;;;;;;;3.33;2.40;;;11.50;99.90;;;;;;4873803;29;20193;-63
2023/09/26 00:22:09;;;;;;;2.97;2.67;;;11.50;99.90;;;;;;4879550;29;20300;-66
2023/09/26 00:24:36;;;;;;;3.33;2.97;;;11.40;99.90;;;;;;4864559;29;20221;-64
2023/09/26 00:27:03;;;;;;;3.33;2.60;;;11.40;99.90;;;;;;4878360;29;20265;-64
2023/09/26 00:29:31;;;;;;;4.07;2.93;;;11.40;99.90;;;;;;4870637;29;20423;-63
2023/09/26 00:32:01;;;;;;;3.70;2.50;;;11.40;99.90;;;;;;4870928;29;20716;-64
2023/09/26 00:34:29;;;;;;;8.17;2.50;;;11.40;99.90;;;;;;4870052;29;20229;-65
2023/09/26 00:36:56;;;;;;;2.70;2.43;;;11.40;99.90;;;;;;4886287;29;20266;-65
2023/09/26 00:39:23;;;;;;;2.90;2.60;;;11.40;99.90;;;;;;4872279;29;20670;-64
2023/09/26 00:41:50;;;;;;;2.70;2.47;;;11.30;99.90;;;;;;4880520;29;20218;-63
2023/09/26 00:44:17;;;;;;;3.83;2.70;;;11.20;99.90;;;;;;4874460;29;20301;-64
2023/09/26 00:46:45;;;;;;;3.53;2.50;;;11.20;99.90;;;;;;4874013;29;20250;-65
2023/09/26 00:49:13;;;;;;;3.57;2.93;;;11.20;99.90;;;;;;4878165;29;20238;-71
2023/09/26 00:51:40;;;;;;;3.00;2.57;;;11.20;99.90;;;;;;4873824;29;20206;-64
2023/09/26 00:54:09;;;;;;;3.23;2.20;;;11.20;99.90;;;;;;4879851;29;20258;-64
2023/09/26 00:56:39;;;;;;;7.27;2.70;;;11.20;99.90;;;;;;4884151;29;20202;-64
2023/09/26 00:59:07;;;;;;;3.73;2.80;;;11.10;99.90;;;;;;4871429;29;20212;-64
2023/09/26 01:01:35;;;;;;;5.97;2.83;;;11.20;99.90;;;;;;4873894;29;20353;-68
2023/09/26 01:04:04;;;;;;;5.03;2.70;;;11.10;99.90;;;;;;4874717;29;20212;-64
2023/09/26 01:06:31;;;;;;;3.63;2.27;;;11.10;99.90;;;;;;4881571;29;20201;-64
2023/09/26 01:08:59;;;;;;;2.97;2.30;;;11.00;99.90;;;;;;4864437;29;20209;-64
2023/09/26 01:11:26;;;;;;;5.27;2.67;;;11.00;99.90;;;;;;4867355;29;20194;-66
2023/09/26 01:13:53;;;;;;;4.17;3.07;;;11.00;99.90;;;;;;4870059;29;20270;-64
2023/09/26 01:16:20;;;;;;;4.57;2.50;;;10.90;99.90;;;;;;4872062;29;20233;-65
2023/09/26 01:18:47;;;;;;;4.30;2.57;;;10.80;99.90;;;;;;4872877;29;20712;-64
2023/09/26 01:21:14;;;;;;;6.60;2.93;;;10.80;99.90;;;;;;4864028;29;20256;-65
2023/09/26 01:23:42;;;;;;;3.17;2.73;;;10.80;99.90;;;;;;4854800;29;20258;-66
2023/09/26 01:26:09;;;;;;;3.10;2.80;;;10.80;99.90;;;;;;4882253;29;20249;-64
2023/09/26 01:28:36;;;;;;;3.17;2.53;;;10.80;99.90;;;;;;4877138;29;20778;-64
2023/09/26 01:31:03;;;;;;;4.00;2.60;;;10.80;99.90;;;;;;4867346;29;20209;-64
2023/09/26 01:33:30;;;;;;;3.27;2.67;;;10.80;99.90;;;;;;4856183;29;20325;-65
2023/09/26 01:36:00;;;;;;;3.40;2.80;;;10.80;99.90;;;;;;4856442;29;20218;-64
2023/09/26 01:38:27;;;;;;;5.27;2.53;;;10.80;99.90;;;;;;4870054;29;20270;-64
2023/09/26 01:40:54;;;;;;;3.50;2.60;;;10.80;99.90;;;;;;4856290;29;20214;-64
2023/09/26 01:43:21;;;;;;;4.63;2.67;;;10.80;99.90;;;;;;4859050;29;20842;-64
2023/09/26 01:45:48;;;;;;;3.97;3.07;;;10.80;99.90;;;;;;4873180;29;20202;-65
2023/09/26 01:48:15;;;;;;;3.80;2.70;;;10.80;99.90;;;;;;4874354;29;20206;-66
2023/09/26 01:50:42;;;;;;;3.10;2.80;;;10.70;99.90;;;;;;4875215;29;20209;-66
2023/09/26 01:53:13;;;;;;;4.83;2.70;;;10.70;99.90;;;;;;4878975;29;20610;-65
2023/09/26 01:55:40;;;;;;;2.43;2.20;;;10.70;99.90;;;;;;4859953;29;20210;-65
2023/09/26 01:58:07;;;;;;;4.33;2.73;;;10.70;99.90;;;;;;4844807;29;20208;-65
2023/09/26 02:04:34;;;;;;;3.67;2.30;;;10.70;99.90;;;;;;4870223;29;20184;-64
2023/09/26 02:07:01;;;;;;;4.00;2.80;;;10.60;99.90;;;;;;4874742;29;20206;-64
2023/09/26 02:09:28;;;;;;;4.10;2.50;;;10.70;99.90;;;;;;4876194;29;20586;-67
2023/09/26 02:11:55;;;;;;;4.27;2.97;;;10.50;99.90;;;;;;4874633;29;20221;-64
2023/09/26 02:14:21;;;;;;;4.60;3.13;;;10.50;99.90;;;;;;4879235;29;20233;-63
2023/09/26 02:16:48;;;;;;;7.00;3.00;;;10.30;99.90;;;;;;4877165;29;20577;-63
2023/09/26 02:19:15;;;;;;;5.13;3.30;;;10.20;99.90;;;;;;4887767;29;20680;-67
2023/09/26 02:21:43;;;;;;;3.03;2.67;;;10.20;99.90;;;;;;4881676;29;20301;-65
2023/09/26 02:24:09;;;;;;;4.47;3.17;;;10.20;99.90;;;;;;4870746;29;20293;-67
2023/09/26 02:26:37;;;;;;;3.27;2.80;;;10.20;99.90;;;;;;4890353;29;20201;-65
2023/09/26 02:29:04;;;;;;;4.67;3.33;;;10.20;99.90;;;;;;4872243;29;20265;-65
2023/09/26 02:31:31;;;;;;;7.20;2.67;;;10.20;99.90;;;;;;4872518;29;20594;-66
2023/09/26 02:33:58;;;;;;;3.90;2.80;;;10.10;99.90;;;;;;4877476;29;20324;-66
2023/09/26 02:36:25;;;;;;;4.07;3.30;;;10.10;99.90;;;;;;4875859;29;20206;-61
2023/09/26 02:38:52;;;;;;;3.50;3.20;;;10.10;99.90;;;;;;4875068;29;20208;-62
2023/09/26 02:41:18;;;;;;;4.00;3.20;;;10.10;99.90;;;;;;4882370;29;20264;-62
2023/09/26 02:43:45;;;;;;;5.20;3.23;;;10.10;99.90;;;;;;4891523;29;20208;-62
2023/09/26 02:46:12;;;;;;;3.47;3.17;;;10.10;99.90;;;;;;4891945;29;20274;-62
2023/09/26 02:48:39;;;;;;;4.37;3.60;;;10.10;99.90;;;;;;4868958;29;20233;-61
2023/09/26 02:51:06;;;;;;;3.60;3.30;;;10.20;99.90;;;;;;4891242;29;20217;-61
2023/09/26 02:53:33;;;;;;;4.60;3.63;;;10.10;99.90;;;;;;4876218;29;20249;-63
2023/09/26 02:56:00;;;;;;;5.07;3.90;;;10.10;99.90;;;;;;4877178;29;20201;-66
2023/09/26 02:58:28;;;;;;;4.53;3.43;;;10.10;99.90;;;;;;4865779;29;20326;-68
2023/09/26 03:00:55;;;;;;;5.33;3.97;;;10.10;99.90;;;;;;4871406;29;20651;-70
2023/09/26 03:03:23;;;;;;;4.73;3.50;;;10.00;99.90;;;;;;4867173;29;20202;-65
2023/09/26 03:05:52;;;;;;;5.33;4.23;;;10.00;99.90;;;;;;4883579;29;20185;-67
2023/09/26 03:08:19;;;;;;;4.87;3.87;;;10.00;99.90;;;;;;4894261;29;20198;-65
2023/09/26 03:10:46;;;;;;;9.33;4.10;;;10.00;99.90;;;;;;4868006;29;20198;-64
2023/09/26 03:13:13;;;;;;;4.50;3.87;;;10.00;99.90;;;;;;4878830;29;20327;-64
2023/09/26 03:15:41;;;;;;;5.93;3.50;;;10.00;99.90;;;;;;4870867;29;20225;-64
2023/09/26 03:18:08;;;;;;;4.17;3.77;;;10.00;99.90;;;;;;4868995;29;20202;-65
2023/09/26 03:20:39;;;;;;;7.43;4.23;;;10.00;99.90;;;;;;4873923;29;20660;-66
2023/09/26 03:23:06;;;;;;;5.67;4.07;;;10.00;99.90;;;;;;4847808;29;20711;-64
2023/09/26 03:25:33;;;;;;;4.53;3.97;;;10.00;99.90;;;;;;4872371;29;20200;-64
2023/09/26 03:28:02;;;;;;;7.00;4.17;;;10.00;99.90;;;;;;4850877;29;20250;-71
2023/09/26 03:30:29;;;;;;;5.07;3.77;;;10.00;99.90;;;;;;4864881;29;20229;-64
2023/09/26 03:32:56;;;;;;;4.47;3.63;;;10.00;99.90;;;;;;4862325;29;20226;-65
2023/09/26 03:35:23;;;;;;;4.40;4.00;;;10.00;99.90;;;;;;4860699;29;20603;-65
2023/09/26 03:37:51;;;;;;;5.60;4.30;;;9.90;99.90;;;;;;4877299;29;20206;-64
2023/09/26 03:40:18;;;;;;;6.53;4.10;;;9.90;99.90;;;;;;4865006;29;20774;-67
2023/09/26 03:42:45;;;;;;;5.00;4.40;;;9.90;99.90;;;;;;4871709;29;20226;-65
2023/09/26 03:45:12;;;;;;;4.50;3.87;;;9.90;99.90;;;;;;4860930;29;20198;-65
2023/09/26 03:47:39;;;;;;;4.10;3.50;;;9.90;99.90;;;;;;4872451;29;20193;-66
2023/09/26 03:50:08;;;;;;;4.60;3.80;;;9.90;99.90;;;;;;4850381;29;20270;-66
2023/09/26 03:52:35;;;;;;;6.33;4.03;;;9.90;99.90;;;;;;4869920;29;20299;-66
2023/09/26 03:55:03;;;;;;;4.97;3.67;;;9.80;99.90;;;;;;4866267;29;20671;-63
2023/09/26 03:57:31;;;;;;;5.00;4.20;;;9.80;99.90;;;;;;4862420;29;20668;-66
2023/09/26 03:59:58;;;;;;;8.43;4.60;;;9.80;99.90;;;;;;4874351;29;20221;-67
2023/09/26 04:02:25;;;;;;;5.93;4.33;;;9.80;99.90;;;;;;4861000;29;20222;-67
2023/09/26 04:04:52;;;;;;;6.43;4.53;;;9.80;99.90;;;;;;4865066;29;20209;-68
2023/09/26 04:07:19;;;;;;;4.73;3.73;;;9.90;99.90;;;;;;4872703;29;20198;-67
2023/09/26 04:09:46;;;;;;;6.13;3.93;;;9.90;99.90;;;;;;4843305;29;20716;-68
2023/09/26 04:12:13;;;;;;;7.80;4.80;;;10.00;99.90;;;;;;4866501;29;20209;-67
2023/09/26 04:14:40;;;;;;;5.63;4.40;;;10.00;99.90;;;;;;4872748;29;20689;-66
2023/09/26 04:17:07;;;;;;;5.77;4.33;;;9.90;99.90;;;;;;4871335;29;20209;-64
2023/09/26 04:19:34;;;;;;;9.00;5.23;;;9.80;99.90;;;;;;4891229;29;20213;-64
2023/09/26 04:22:01;;;;;;;5.40;4.20;;;9.80;99.90;;;;;;4869269;29;20795;-65
2023/09/26 04:24:29;;;;;;;5.33;4.20;;;9.80;99.90;;;;;;4869924;29;20257;-65
2023/09/26 04:26:56;;;;;;;5.73;4.83;;;9.80;99.90;;;;;;4882797;29;20584;-64
2023/09/26 04:29:23;;;;;;;6.47;4.70;;;9.80;99.90;;;;;;4864232;29;20598;-66
2023/09/26 04:31:49;;;;;;;7.33;4.40;;;9.80;99.90;;;;;;4872693;29;20198;-65
2023/09/26 04:34:17;;;;;;;7.67;5.97;;;9.70;99.90;;;;;;4874030;29;20201;-67
2023/09/26 04:36:44;;;;;;;17.80;4.80;;;9.70;99.90;;;;;;4874070;29;20210;-62
2023/09/26 04:39:11;;;;;;;6.60;4.73;;;9.70;99.90;;;;;;4869508;29;20293;-62
2023/09/26 04:41:38;;;;;;;4.53;4.07;;;9.70;99.90;;;;;;4881851;29;20230;-62
2023/09/26 04:44:07;;;;;;;4.73;4.23;;;9.60;99.90;;;;;;4869674;29;20202;-62
2023/09/26 04:46:34;;;;;;;9.60;6.20;;;9.60;99.90;;;;;;4871810;29;20194;-63
2023/09/26 04:49:01;;;;;;;6.13;5.17;;;9.60;99.90;;;;;;4870185;29;20694;-62
2023/09/26 04:51:28;;;;;;;7.43;4.80;;;9.60;99.90;;;;;;4869953;29;20206;-66
2023/09/26 04:53:56;;;;;;;6.53;4.70;;;9.60;99.90;;;;;;4875482;29;20202;-63
2023/09/26 04:56:23;;;;;;;12.73;5.97;;;9.50;99.90;;;;;;4863794;29;20667;-63
2023/09/26 04:58:51;;;;;;;5.77;4.60;;;9.50;99.90;;;;;;4889433;29;20746;-62
2023/09/26 05:01:17;;;;;;;10.53;5.27;;;9.50;99.90;;;;;;4872865;29;20738;-62
2023/09/26 05:03:45;;;;;;;5.63;5.07;;;9.50;99.90;;;;;;4875885;29;20244;-62
2023/09/26 05:06:13;;;;;;;6.30;4.97;;;9.50;99.90;;;;;;4869876;29;20250;-63
2023/09/26 05:08:40;;;;;;;6.73;5.30;;;9.50;99.90;;;;;;4867219;29;20553;-60
2023/09/26 05:11:15;;;;;;;6.60;5.00;;;9.50;99.90;;;;;;4870927;29;20508;-61
2023/09/26 05:13:43;;;;;;;7.30;5.33;;;9.40;99.90;;;;;;4873045;29;20217;-62
2023/09/26 05:16:10;;;;;;;8.70;5.23;;;9.40;99.90;;;;;;4882953;29;20296;-62
2023/09/26 05:18:38;;;;;;;8.00;5.97;;;9.40;99.90;;;;;;4878409;29;20201;-63
2023/09/26 05:21:07;;;;;;;6.77;5.47;;;9.40;99.90;;;;;;4874688;29;20202;-62
2023/09/26 05:23:34;;;;;;;6.50;5.20;;;9.50;99.90;;;;;;4863413;29;20225;-62
2023/09/26 05:26:09;;;;;;;6.20;4.30;;;9.50;99.90;;;;;;4847547;29;20201;-63
2023/09/26 05:28:36;;;;;;;6.17;4.47;;;9.50;99.90;;;;;;4867071;29;20202;-67
2023/09/26 05:31:04;;;;;;;6.83;4.67;;;9.50;99.90;;;;;;4862822;29;20261;-67
2023/09/26 05:33:32;;;;;;;8.30;5.27;;;9.50;99.90;;;;;;4859263;29;20332;-66
2023/09/26 05:35:59;;;;;;;7.73;5.17;;;9.50;99.90;;;;;;4878983;29;20292;-66
2023/09/26 05:38:26;;;;;;;6.90;4.77;;;9.60;99.90;;;;;;4870998;29;20229;-64
2023/09/26 05:40:53;;;;;;;5.00;4.50;;;9.60;99.90;;;;;;4871929;29;20668;-65
2023/09/26 05:43:20;;;;;;;8.80;5.23;;;9.70;99.90;;;;;;4877772;29;20225;-65
2023/09/26 05:45:49;;;;;;;7.63;5.43;;;9.70;99.90;;;;;;4869871;29;20228;-66
2023/09/26 05:48:17;;;;;;;7.90;5.07;;;9.80;99.90;;;;;;4877746;29;20670;-66
2023/09/26 05:50:45;;;;;;;6.67;5.03;;;9.90;99.90;;;;;;4876725;29;20225;-65
2023/09/26 05:53:12;;;;;;;10.27;6.67;;;11.00;99.90;;;;;;4871274;29;20213;-68
2023/09/26 05:55:39;;;;;;;7.40;6.10;;;12.90;99.90;;;;;;4865230;29;20216;-66
2023/09/26 05:58:06;;;;;;;6.97;3.57;;;14.70;99.90;;;;;;4880383;29;20597;-65
2023/09/26 06:00:36;;;;;;;3.43;2.83;;;16.20;99.90;;;;;;4875938;29;20337;-65
2023/09/26 06:03:03;;;;;;;5.68;2.88;;;17.30;99.90;;;;;;4862861;29;20248;-65
2023/09/26 06:05:30;;;;;;;4.05;2.97;;;18.00;99.90;;;;;;4872248;29;20198;-65
2023/09/26 06:07:57;;;;;;;3.03;2.72;;;18.40;99.90;;;;;;4868721;29;20289;-65
2023/09/26 06:10:24;;;;;;;3.28;2.92;;;19.20;99.90;;;;;;4877036;29;20613;-67
2023/09/26 06:12:53;;;;;;;6.65;3.17;;;19.60;99.90;;;;;;4858680;29;20301;-76
2023/09/26 06:15:20;;;;;;;5.00;3.20;;;19.70;99.90;;;;;;4868328;29;20234;-69
2023/09/26 06:17:47;;;;;;;3.40;3.10;;;19.60;99.90;;;;;;4870601;29;20715;-64
2023/09/26 06:20:16;;;;;;;4.00;3.33;;;20.40;99.90;;;;;;4867859;29;20206;-63
2023/09/26 06:22:43;;;;;;;3.22;2.80;;;21.00;99.90;;;;;;4868866;29;20774;-63
2023/09/26 06:25:10;;;;;;;3.85;3.30;;;21.00;99.90;;;;;;4872596;29;20288;-65
2023/09/26 06:27:38;;;;;;;3.47;3.17;;;21.70;99.90;;;;;;4877777;29;20576;-64
2023/09/26 06:30:05;;;;;;;3.33;2.95;;;22.90;99.90;;;;;;4869254;29;20217;-63
2023/09/26 06:32:35;;;;;;;3.67;2.90;;;23.90;99.90;;;;;;4866240;29;20317;-63
2023/09/26 06:35:03;;;;;;;3.30;3.00;;;24.70;99.90;;;;;;4859812;29;20738;-63
2023/09/26 06:37:30;;;;;;;4.53;3.30;;;25.40;99.90;;;;;;4867933;29;20674;-63
2023/09/26 06:40:00;;;;;;;5.90;3.80;;;25.80;99.90;;;;;;4862637;29;20194;-64
2023/09/26 06:42:27;;;;;;;4.38;3.58;;;26.10;99.90;;;;;;4869604;29;20220;-63
2023/09/26 06:44:54;;;;;;;3.60;3.30;;;27.20;99.90;;;;;;4884107;29;20257;-64
2023/09/26 06:47:21;;;;;;;4.82;3.60;;;27.60;99.90;;;;;;4875195;29;20655;-64
2023/09/26 06:49:48;;;;;;;4.65;3.35;;;28.70;99.90;;;;;;4885175;29;20194;-63
2023/09/26 06:52:16;;;;;;;3.78;3.42;;;29.00;99.90;;;;;;4881459;29;20209;-64
2023/09/26 06:54:44;;;;;;;3.83;3.53;;;29.60;99.90;;;;;;4880634;29;20210;-64
2023/09/26 06:57:15;;;;;;;3.92;3.63;;;30.40;99.90;;;;;;4876629;29;20252;-66
2023/09/26 06:59:42;;;;;;;4.35;3.88;;;30.10;99.90;;;;;;4855031;29;20527;-66
2023/09/26 07:02:09;;;;;;;3.88;3.53;;;30.00;99.90;;;;;;4869868;29;20230;-66
2023/09/26 07:04:36;;;;;;;4.13;3.83;;;29.30;99.90;;;;;;4869304;29;20699;-66
2023/09/26 07:07:03;;;;;;;4.22;3.83;;;29.60;99.90;;;;;;4861517;29;20198;-67
2023/09/26 07:09:30;;;;;;;4.25;3.85;;;29.30;99.90;;;;;;4868553;29;20641;-67
2023/09/26 07:11:57;;;;;;;5.45;3.63;;;27.90;99.90;;;;;;4864714;29;20605;-67
2023/09/26 07:14:25;;;;;;;5.38;4.18;;;28.10;99.90;;;;;;4866322;29;20241;-67
2023/09/26 07:16:52;;;;;;;5.20;3.83;;;27.50;99.90;;;;;;4870515;29;20202;-66
2023/09/26 07:19:19;;;;;;;4.53;3.90;;;27.20;99.90;;;;;;4871590;29;20798;-67
2023/09/26 07:21:46;;;;;;;3.88;3.47;;;27.30;99.90;;;;;;4873379;29;20417;-67
2023/09/26 07:24:13;;;;;;;3.88;3.58;;;27.80;99.90;;;;;;4874061;29;20260;-67
2023/09/26 07:26:40;;;;;;;4.20;3.80;;;28.10;99.90;;;;;;4888115;29;20206;-64
2023/09/26 07:29:10;;;;;;;4.18;3.80;;;28.70;99.90;;;;;;4869396;29;20689;-64
2023/09/26 07:31:39;;;;;;;4.90;3.70;;;28.80;99.90;;;;;;4871955;29;20198;-65
2023/09/26 07:34:06;;;;;;;4.05;3.75;;;28.30;99.90;;;;;;4873038;29;20214;-64
2023/09/26 07:36:34;;;;;;;3.85;3.58;;;26.30;99.90;;;;;;4872722;29;20274;-69
2023/09/26 07:39:01;;;;;;;4.18;3.78;;;27.00;99.90;;;;;;4872748;29;20265;-65
2023/09/26 07:41:28;;;;;;;5.30;3.90;;;26.60;99.90;;;;;;4873518;29;20225;-64
2023/09/26 07:43:55;;;;;;;3.90;3.40;;;25.80;99.90;;;;;;4873594;29;20901;-65
2023/09/26 07:46:22;;;;;;;4.40;4.00;;;27.10;99.90;;;;;;4885336;29;20696;-64
2023/09/26 07:48:49;;;;;;;6.05;3.53;;;27.70;99.90;;;;;;4887447;29;20198;-64
2023/09/26 07:51:16;;;;;;;3.83;3.53;;;29.50;99.90;;;;;;4871956;29;20564;-65
2023/09/26 07:53:43;;;;;;;4.18;3.80;;;31.80;99.90;;;;;;4871209;29;20601;-65
2023/09/26 07:56:11;;;;;;;3.78;3.47;;;32.30;99.90;;;;;;4872637;29;20228;-64
2023/09/26 07:58:38;;;;;;;4.05;3.70;;;32.60;99.90;;;;;;4870165;29;20354;-63
2023/09/26 08:01:09;;;;;;;3.80;3.50;;;34.00;99.90;;;;;;4872228;29;20213;-64
2023/09/26 08:03:40;;;;;;;4.43;4.03;;;35.10;99.90;;;;;;4870347;29;20872;-63
2023/09/26 08:06:07;;;;;;;11.63;4.25;;;31.60;99.90;;;;;;4873296;29;20216;-63
2023/09/26 08:08:35;;;;;;;5.90;3.92;;;33.60;99.90;;;;;;4867536;29;20569;-63
2023/09/26 08:11:10;;;;;;;4.03;3.72;;;32.50;99.90;;;;;;4870374;29;21028;-63
2023/09/26 08:13:41;;;;;;;4.20;3.80;;;33.50;99.90;;;;;;4869632;29;20209;-66
2023/09/26 08:16:08;;;;;;;5.07;4.15;;;32.60;99.90;;;;;;4879142;29;21637;-65
2023/09/26 08:18:37;;;;;;;4.15;3.75;;;33.60;99.90;;;;;;4868565;29;20229;-65
2023/09/26 08:21:05;;;;;;;4.13;3.72;;;33.50;99.90;;;;;;4867004;29;20197;-66
2023/09/26 08:23:32;;;;;;;4.10;3.80;;;31.00;99.90;;;;;;4870324;29;20241;-65
2023/09/26 08:26:02;;;;;;;4.15;3.85;;;29.20;99.90;;;;;;4860383;29;20200;-65
2023/09/26 08:28:30;;;;;;;5.05;3.70;;;25.60;99.90;;;;;;4869852;29;20197;-65
2023/09/26 08:31:04;;;;;;;4.43;4.03;;;22.00;99.90;;;;;;4866349;29;20200;-64
2023/09/26 08:33:31;;;;;;;5.50;4.30;;;21.30;99.90;;;;;;4859828;29;20272;-64
2023/09/26 08:35:58;;;;;;;4.70;4.30;;;20.40;99.90;;;;;;4856620;29;20633;-64
2023/09/26 08:38:27;;;;;;;4.55;4.05;;;19.70;99.90;;;;;;4860654;29;20233;-63
2023/09/26 08:40:57;;;;;;;4.50;4.20;;;19.30;99.90;;;;;;4868543;29;20201;-63
2023/09/26 08:43:26;;;;;;;4.40;3.95;;;19.50;99.90;;;;;;4869801;29;20214;-64
2023/09/26 08:45:53;;;;;;;4.57;4.18;;;24.30;99.90;;;;;;4874268;29;20201;-65
2023/09/26 08:48:21;;;;;;;6.55;4.20;;;29.10;99.90;;;;;;4869135;29;20208;-65
2023/09/26 08:50:51;;;;;;;4.05;3.75;;;31.00;99.90;;;;;;4867837;29;20280;-64
2023/09/26 08:53:18;;;;;;;4.53;3.72;;;33.60;99.90;;;;;;4871035;29;20258;-65
2023/09/26 08:55:49;;;;;;;3.88;3.58;;;34.30;99.90;;;;;;4863489;29;20283;-68
2023/09/26 08:58:19;;;;;;;3.75;3.45;;;36.00;99.90;;;;;;4861056;29;20206;-67
2023/09/26 09:00:46;;;;;;;3.90;3.60;;;36.70;99.90;;;;;;4868483;29;20220;-67
2023/09/26 09:03:14;;;;;;;3.70;3.40;;;35.90;99.90;;;;;;4866690;29;20220;-67
2023/09/26 09:05:41;;;;;;;6.55;4.88;;;37.50;99.90;;;;;;4870792;29;20201;-66
2023/09/26 09:08:08;;;;;;;4.45;4.15;;;36.70;99.90;;;;;;4858802;29;20669;-67
2023/09/26 09:10:55;;;;;;;4.25;3.83;;;36.20;99.90;;;;;;4867613;29;20216;-68
2023/09/26 09:13:37;;;;;;;4.72;4.32;;;37.10;99.90;;;;;;4869006;29;20308;-67
2023/09/26 09:16:08;;;;;;;4.30;3.95;;;38.40;99.90;;;;;;4871559;29;20264;-70
2023/09/26 09:18:37;;;;;;;4.85;4.32;;;39.40;99.90;;;;;;4860057;29;20206;-70
2023/09/26 09:21:19;;;;;;;4.53;3.90;;;39.70;99.90;;;;;;4862938;29;20279;-69
2023/09/26 09:23:47;;;;;;;4.38;3.90;;;40.80;99.90;;;;;;4875785;29;20432;-68
2023/09/26 09:26:15;;;;;;;4.22;3.83;;;39.00;99.90;;;;;;4870970;29;20216;-69
2023/09/26 09:28:42;;;;;;;4.47;4.10;;;40.00;99.90;;;;;;4865433;29;20201;-68
2023/09/26 09:31:13;;;;;;;7.38;3.90;;;39.00;99.90;;;;;;4865967;29;20836;-68
2023/09/26 09:33:45;;;;;;;7.00;4.38;;;41.00;99.90;;;;;;4869684;29;20229;-68
2023/09/26 09:36:13;;;;;;;4.60;4.20;;;34.70;99.90;;;;;;4881899;29;20232;-68
2023/09/26 09:38:40;;;;;;;5.07;3.92;;;33.80;99.90;;;;;;4862554;29;20213;-68
2023/09/26 09:41:08;;;;;;;4.63;4.22;;;32.00;99.90;;;;;;4869578;29;20750;-69
2023/09/26 09:43:36;;;;;;;4.20;3.80;;;31.30;99.90;;;;;;4864261;29;20225;-69
2023/09/26 09:46:10;;;;;;;4.07;3.78;;;32.20;99.90;;;;;;4877010;29;20258;-70
2023/09/26 09:48:42;;;;;;;4.07;3.70;;;32.50;99.90;;;;;;4866231;29;20201;-70
2023/09/26 09:51:13;;;;;;;4.50;4.10;;;34.30;99.90;;;;;;4879608;29;20214;-67
2023/09/26 09:53:53;;;;;;;4.32;3.92;;;34.20;99.90;;;;;;4856749;29;20277;-68
2023/09/26 09:56:24;;;;;;;4.18;3.78;;;37.30;99.90;;;;;;4854899;29;20442;-68
2023/09/26 09:58:56;;;;;;;4.43;3.42;;;38.80;99.90;;;;;;4855357;29;20705;-69
2023/09/26 10:01:26;;;;;;;4.32;4.03;;;40.00;99.90;;;;;;4875648;29;20681;-67
2023/09/26 10:03:54;;;;;;;4.20;3.83;;;39.90;99.90;;;;;;4868427;29;20217;-69
2023/09/26 10:06:21;;;;;;;4.63;3.85;;;39.10;99.90;;;;;;4880992;29;20357;-66
2023/09/26 10:08:49;;;;;;;3.88;3.58;;;38.90;99.90;;;;;;4855819;29;20197;-65
2023/09/26 10:11:18;;;;;;;4.82;3.70;;;37.90;99.90;;;;;;4875168;29;20193;-63
2023/09/26 10:13:49;;;;;;;3.67;3.38;;;32.30;99.90;;;;;;4875948;29;20216;-64
2023/09/26 10:16:20;;;;;;;3.85;3.55;;;33.50;99.90;;;;;;4852438;29;20209;-65
2023/09/26 10:18:51;;;;;;;3.65;3.30;;;35.20;99.90;;;;;;4880464;29;20201;-65
2023/09/26 10:21:19;;;;;;;6.80;3.70;;;33.20;99.90;;;;;;4886201;29;20520;-66
2023/09/26 10:24:05;;;;;;;3.13;2.92;;;35.00;99.90;;;;;;4880418;29;20277;-62
2023/09/26 10:26:33;;;;;;;5.60;2.90;;;35.30;99.90;;;;;;4863241;29;20576;-65
2023/09/26 10:29:12;;;;;;;4.15;3.70;;;35.10;99.90;;;;;;4877074;29;20563;-63
2023/09/26 10:31:47;;;;;;;3.47;3.17;;;35.00;99.90;;;;;;4880924;29;21137;-64
2023/09/26 10:34:15;;;;;;;4.25;3.40;;;35.00;99.90;;;;;;4858646;29;20212;-66
2023/09/26 10:36:44;;;;;;;3.50;3.22;;;31.70;99.90;;;;;;4883175;29;20216;-65
2023/09/26 10:39:12;;;;;;;4.93;3.40;;;32.20;99.90;;;;;;4864267;29;20201;-66
2023/09/26 10:41:40;;;;;;;3.75;3.30;;;33.40;99.90;;;;;;4860273;29;20269;-65
2023/09/26 10:44:27;;;;;;;3.47;3.17;;;35.10;99.90;;;;;;4873066;29;20233;-65
2023/09/26 10:46:54;;;;;;;3.97;3.42;;;34.70;99.90;;;;;;4861286;29;20232;-66
2023/09/26 10:49:21;;;;;;;3.65;3.35;;;30.50;99.90;;;;;;4877040;29;20205;-65
2023/09/26 10:51:48;;;;;;;3.40;3.10;;;30.00;99.90;;;;;;4873124;29;20666;-64
2023/09/26 10:54:16;;;;;;;3.20;3.00;;;29.70;99.90;;;;;;4873370;29;20253;-66
2023/09/26 10:56:50;;;;;;;3.60;3.33;;;27.90;99.90;;;;;;4879907;29;20209;-67
2023/09/26 10:59:18;;;;;;;3.30;3.00;;;27.90;99.90;;;;;;4885103;29;20355;-67
2023/09/26 11:01:45;;;;;;;3.63;3.40;;;28.30;99.90;;;;;;4862726;29;20866;-71
2023/09/26 11:04:13;;;;;;;3.55;3.25;;;29.60;99.90;;;;;;4876820;29;21041;-69
2023/09/26 11:06:42;;;;;;;3.78;3.47;;;30.50;99.90;;;;;;4872843;29;20202;-70
2023/09/26 11:09:29;;;;;;;3.28;3.08;;;31.40;99.90;;;;;;4874975;29;20207;-69
2023/09/26 11:11:56;;;;;;;4.10;3.70;;;32.80;99.90;;;;;;4871141;29;20269;-67
2023/09/26 11:14:24;;;;;;;3.58;3.28;;;31.40;99.90;;;;;;4871280;29;20381;-67
2023/09/26 11:16:51;;;;;;;3.90;3.60;;;32.80;99.90;;;;;;4870038;29;20212;-68
2023/09/26 11:19:26;;;;;;;3.45;3.20;;;33.90;99.90;;;;;;4873992;29;20256;-68
2023/09/26 11:21:56;;;;;;;3.55;3.25;;;33.10;99.90;;;;;;4866233;29;20718;-66
2023/09/26 11:24:25;;;;;;;3.92;3.20;;;33.20;99.90;;;;;;4868035;29;20301;-66
2023/09/26 11:26:55;;;;;;;6.95;3.20;;;31.90;99.90;;;;;;4870407;29;20305;-67
2023/09/26 11:29:24;;;;;;;3.03;2.83;;;30.20;99.90;;;;;;4869459;29;20313;-68
2023/09/26 11:31:55;;;;;;;3.22;2.97;;;29.00;99.90;;;;;;4869685;29;20288;-68
2023/09/26 11:34:24;;;;;;;3.20;2.90;;;29.10;99.90;;;;;;4848485;29;20540;-66
2023/09/26 11:36:51;;;;;;;3.35;3.10;;;28.60;99.90;;;;;;4859658;29;20257;-66
2023/09/26 11:39:20;;;;;;;3.50;3.20;;;29.60;99.90;;;;;;4868503;29;21658;-67
2023/09/26 11:42:00;;;;;;;3.25;3.05;;;28.60;99.90;;;;;;4875811;29;20205;-68
2023/09/26 11:44:27;;;;;;;3.22;3.03;;;28.00;99.90;;;;;;4869666;29;20213;-67
2023/09/26 11:46:56;;;;;;;3.30;3.08;;;28.10;99.90;;;;;;4859378;29;20265;-67
2023/09/26 11:49:24;;;;;;;3.40;3.20;;;29.70;99.90;;;;;;4870958;29;20670;-67
2023/09/26 11:51:52;;;;;;;3.10;2.90;;;29.20;99.90;;;;;;4867318;29;20216;-68
2023/09/26 11:54:19;;;;;;;3.25;3.00;;;28.60;99.90;;;;;;4859093;29;20604;-66
2023/09/26 11:56:46;;;;;;;3.50;3.30;;;27.60;99.90;;;;;;4856971;29;20216;-66
2023/09/26 11:59:14;;;;;;;3.20;2.90;;;27.20;99.90;;;;;;4859876;29;20254;-65
2023/09/26 12:01:42;;;;;;;3.17;2.95;;;27.60;99.90;;;;;;4876118;29;20339;-66
2023/09/26 12:04:13;;;;;;;3.30;3.00;;;28.60;99.90;;;;;;4870789;29;20214;-67
2023/09/26 12:06:40;;;;;;;2.97;2.85;;;28.30;99.90;;;;;;4870276;29;20190;-63
2023/09/26 12:09:17;;;;;;;3.10;2.72;;;28.20;99.90;;;;;;4870773;29;20189;-63
2023/09/26 12:11:45;;;;;;;3.90;2.90;;;28.50;99.90;;;;;;4872936;29;20205;-63
2023/09/26 12:14:14;;;;;;;3.60;3.40;;;27.00;99.90;;;;;;4863998;29;20249;-64
2023/09/26 12:16:44;;;;;;;3.47;3.28;;;27.50;99.90;;;;;;4869258;29;20300;-64
2023/09/26 12:19:11;;;;;;;3.33;3.10;;;27.60;99.90;;;;;;4857909;29;20283;-65
2023/09/26 12:21:38;;;;;;;3.55;3.25;;;27.40;99.90;;;;;;4873674;29;20203;-64
2023/09/26 12:24:05;;;;;;;3.40;3.20;;;27.50;99.90;;;;;;4872819;29;20579;-64
2023/09/26 12:26:32;;;;;;;3.35;3.05;;;26.60;99.90;;;;;;4876512;29;20229;-64
2023/09/26 12:29:00;;;;;;;3.17;2.97;;;26.50;99.90;;;;;;4873411;29;20198;-63
2023/09/26 12:31:27;;;;;;;3.63;3.20;;;25.80;99.90;;;;;;4869996;29;20601;-66
2023/09/26 12:33:54;;;;;;;3.28;3.08;;;25.20;99.90;;;;;;4855285;29;20570;-67
2023/09/26 12:36:21;;;;;;;3.58;3.25;;;25.10;99.90;;;;;;4832624;29;20281;-67
2023/09/26 12:38:48;;;;;;;3.20;3.00;;;25.80;99.90;;;;;;4864414;29;20282;-69
2023/09/26 12:41:15;;;;;;;3.10;2.90;;;26.30;99.90;;;;;;4859826;29;20225;-67
2023/09/26 12:43:42;;;;;;;3.00;2.80;;;26.90;99.90;;;;;;4868869;29;20221;-68
2023/09/26 12:46:09;;;;;;;3.42;3.13;;;26.20;99.90;;;;;;4868416;29;20283;-67
2023/09/26 12:48:36;;;;;;;6.15;3.10;;;25.50;99.90;;;;;;4865699;29;20205;-68
2023/09/26 12:51:04;;;;;;;3.40;3.20;;;25.30;99.90;;;;;;4879521;29;20202;-67
2023/09/26 12:53:31;;;;;;;6.93;3.17;;;26.10;99.90;;;;;;4858761;29;20198;-66
2023/09/26 12:55:58;;;;;;;3.20;3.00;;;25.70;99.90;;;;;;4875826;29;20544;-67